createdAt,value
2023-05-17T00:01:57.787Z,0.93
2023-05-17T00:04:25.067Z,0.70
2023-05-17T00:06:52.312Z,1.17
2023-05-17T00:09:19.567Z,0.85
2023-05-17T00:11:46.828Z,0.68
2023-05-17T00:14:14.350Z,0.90
2023-05-17T00:16:41.678Z,0.70
2023-05-17T00:19:11.742Z,0.80
2023-05-17T00:21:39.198Z,0.88
2023-05-17T00:24:06.692Z,1.00
2023-05-17T00:26:34.037Z,0.80
2023-05-17T00:29:01.337Z,0.70
2023-05-17T00:31:28.682Z,0.50
2023-05-17T00:33:56.055Z,0.90
2023-05-17T00:36:23.400Z,0.73
2023-05-17T00:38:50.764Z,0.80
2023-05-17T00:41:18.526Z,0.80
2023-05-17T00:43:45.809Z,0.70
2023-05-17T00:46:13.102Z,0.90
2023-05-17T00:48:40.599Z,0.80
2023-05-17T00:51:07.925Z,0.70
2023-05-17T00:53:37.106Z,0.52
2023-05-17T00:56:05.052Z,0.85
2023-05-17T00:58:32.430Z,0.80
2023-05-17T01:01:01.401Z,0.70
2023-05-17T01:05:56.314Z,0.75
2023-05-17T01:08:23.609Z,0.73
2023-05-17T01:11:03.739Z,0.65
2023-05-17T01:14:09.674Z,0.70
2023-05-17T01:16:44.442Z,0.60
2023-05-17T01:19:32.907Z,0.73
2023-05-17T01:22:29.440Z,0.80
2023-05-17T01:25:13.133Z,0.70
2023-05-17T01:27:42.227Z,0.70
2023-05-17T01:30:12.214Z,0.50
2023-05-17T01:32:42.387Z,0.88
2023-05-17T01:35:12.702Z,0.73
2023-05-17T01:37:40.314Z,0.77
2023-05-17T01:40:09.475Z,0.85
2023-05-17T01:42:41.932Z,0.60
2023-05-17T01:45:25.664Z,0.60
2023-05-17T01:48:15.686Z,0.52
2023-05-17T01:50:44.105Z,0.60
2023-05-17T01:53:19.037Z,0.65
2023-05-17T01:55:56.979Z,0.70
2023-05-17T01:58:26.581Z,0.60
2023-05-17T02:00:55.804Z,0.57
2023-05-17T02:03:23.209Z,0.73
2023-05-17T02:05:50.500Z,0.68
2023-05-17T02:08:17.746Z,0.50
2023-05-17T02:10:44.983Z,0.60
2023-05-17T02:13:12.876Z,0.80
2023-05-17T02:15:40.143Z,0.73
2023-05-17T02:18:07.521Z,0.60
2023-05-17T02:20:34.864Z,0.50
2023-05-17T02:23:02.108Z,0.70
2023-05-17T02:25:29.533Z,0.60
2023-05-17T02:27:56.944Z,0.60
2023-05-17T02:30:24.762Z,0.65
2023-05-17T02:32:52.467Z,0.60
2023-05-17T02:35:20.108Z,0.60
2023-05-17T02:37:47.374Z,0.60
2023-05-17T02:40:14.735Z,0.52
2023-05-17T02:42:41.970Z,0.82
2023-05-17T02:45:09.399Z,0.75
2023-05-17T02:47:36.744Z,0.55
2023-05-17T02:50:04.222Z,0.65
2023-05-17T02:52:31.464Z,0.65
2023-05-17T02:54:58.712Z,0.70
2023-05-17T02:57:25.945Z,0.80
2023-05-17T02:59:53.168Z,0.60
2023-05-17T03:02:20.401Z,0.50
2023-05-17T03:04:47.785Z,0.65
2023-05-17T03:07:15.064Z,0.60
2023-05-17T03:09:42.879Z,0.40
2023-05-17T03:12:10.405Z,0.60
2023-05-17T03:14:37.616Z,0.68
2023-05-17T03:17:05.037Z,0.60
2023-05-17T03:19:32.390Z,0.65
2023-05-17T03:21:59.811Z,0.65
2023-05-17T03:24:27.003Z,0.57
2023-05-17T03:26:54.549Z,0.85
2023-05-17T03:29:21.794Z,0.60
2023-05-17T03:31:49.035Z,0.63
2023-05-17T03:34:16.329Z,0.52
2023-05-17T03:36:45.642Z,0.60
2023-05-17T03:39:12.868Z,0.57
2023-05-17T03:41:42.041Z,0.50
2023-05-17T03:44:09.374Z,0.65
2023-05-17T03:46:36.636Z,0.80
2023-05-17T03:49:04.176Z,0.88
2023-05-17T03:51:31.533Z,0.77
2023-05-17T03:54:01.389Z,0.70
2023-05-17T03:56:28.699Z,0.57
2023-05-17T03:58:55.942Z,0.70
2023-05-17T04:01:23.146Z,0.65
2023-05-17T04:03:50.506Z,0.60
2023-05-17T04:06:17.870Z,0.70
2023-05-17T04:08:45.142Z,0.77
2023-05-17T04:11:15.105Z,0.73
2023-05-17T04:13:42.764Z,0.60
2023-05-17T04:16:10.396Z,0.57
2023-05-17T04:18:38.860Z,0.50
2023-05-17T04:21:06.824Z,0.68
2023-05-17T04:23:34.974Z,0.77
2023-05-17T04:26:03.184Z,0.70
2023-05-17T04:28:31.219Z,0.40
2023-05-17T04:30:58.465Z,0.60
2023-05-17T04:33:25.906Z,0.60
2023-05-17T04:35:55.778Z,0.70
2023-05-17T04:38:24.054Z,0.50
2023-05-17T04:40:51.343Z,0.40
2023-05-17T04:43:18.660Z,0.50
2023-05-17T04:45:45.988Z,0.60
2023-05-17T04:48:13.484Z,0.77
2023-05-17T04:50:40.880Z,0.60
2023-05-17T04:53:08.815Z,0.55
2023-05-17T04:55:36.163Z,0.50
2023-05-17T04:58:03.460Z,0.45
2023-05-17T05:00:31.128Z,0.68
2023-05-17T05:02:58.415Z,0.50
2023-05-17T05:05:25.904Z,0.65
2023-05-17T05:07:53.458Z,0.82
2023-05-17T05:10:21.050Z,0.77
2023-05-17T05:12:48.298Z,0.50
2023-05-17T05:15:16.033Z,0.70
2023-05-17T05:17:43.443Z,0.60
2023-05-17T05:20:13.330Z,0.70
2023-05-17T05:22:40.565Z,0.57
2023-05-17T05:25:08.779Z,0.50
2023-05-17T05:27:38.538Z,0.50
2023-05-17T05:30:06.287Z,0.65
2023-05-17T05:32:33.753Z,0.63
2023-05-17T05:35:01.417Z,0.60
2023-05-17T05:37:28.851Z,0.40
2023-05-17T05:39:56.108Z,0.60
2023-05-17T05:42:23.565Z,0.47
2023-05-17T05:44:50.777Z,0.70
2023-05-17T05:47:18.080Z,0.68
2023-05-17T05:49:45.889Z,0.70
2023-05-17T05:52:13.146Z,0.68
2023-05-17T05:54:40.404Z,0.63
2023-05-17T05:57:07.668Z,0.50
2023-05-17T05:59:34.979Z,0.60
2023-05-17T06:02:02.221Z,0.40
2023-05-17T06:04:43.821Z,0.68
2023-05-17T06:07:13.583Z,0.60
2023-05-17T06:09:41.277Z,0.50
2023-05-17T06:12:09.100Z,0.50
2023-05-17T06:14:37.656Z,0.60
2023-05-17T06:17:05.171Z,0.70
2023-05-17T06:19:32.616Z,0.70
2023-05-17T06:22:00.053Z,0.63
2023-05-17T06:24:27.429Z,0.50
2023-05-17T06:26:54.659Z,0.70
2023-05-17T06:29:22.329Z,0.90
2023-05-17T06:31:49.604Z,0.60
2023-05-17T06:34:16.929Z,0.50
2023-05-17T06:36:44.171Z,0.60
2023-05-17T06:39:11.473Z,0.43
2023-05-17T06:41:39.954Z,0.70
2023-05-17T06:44:07.470Z,0.60
2023-05-17T06:46:34.771Z,1.65
2023-05-17T06:49:02.249Z,1.77
2023-05-17T06:51:29.619Z,2.22
2023-05-17T06:53:56.867Z,2.50
2023-05-17T06:56:25.384Z,2.40
2023-05-17T06:58:53.072Z,3.13
2023-05-17T07:01:20.629Z,2.58
2023-05-17T07:03:47.966Z,2.70
2023-05-17T07:06:15.458Z,2.60
2023-05-17T07:08:42.879Z,2.35
2023-05-17T07:11:10.326Z,2.65
2023-05-17T07:13:37.569Z,2.22
2023-05-17T07:16:07.097Z,2.28
2023-05-17T07:18:34.522Z,2.67
2023-05-17T07:21:01.898Z,2.58
2023-05-17T07:23:29.136Z,2.35
2023-05-17T07:25:56.580Z,2.50
2023-05-17T07:28:23.837Z,2.45
2023-05-17T07:30:51.677Z,2.33
2023-05-17T07:33:19.300Z,2.60
2023-05-17T07:35:46.602Z,3.00
2023-05-17T07:38:13.890Z,3.22
2023-05-17T07:40:41.351Z,2.72
2023-05-17T07:43:08.762Z,2.80
2023-05-17T07:45:36.008Z,2.88
2023-05-17T07:48:03.383Z,2.53
2023-05-17T07:50:31.109Z,2.42
2023-05-17T07:52:58.456Z,1.92
2023-05-17T07:55:25.806Z,2.45
2023-05-17T07:57:53.042Z,2.25
2023-05-17T08:00:20.890Z,2.78
2023-05-17T08:02:48.262Z,2.83
2023-05-17T08:05:15.774Z,2.70
2023-05-17T08:07:43.122Z,2.58
2023-05-17T08:10:11.188Z,2.78
2023-05-17T08:12:38.586Z,2.67
2023-05-17T08:15:06.518Z,2.50
2023-05-17T08:17:33.986Z,2.85
2023-05-17T08:20:01.757Z,2.28
2023-05-17T08:22:29.111Z,2.25
2023-05-17T08:24:56.430Z,2.20
2023-05-17T08:27:28.190Z,2.38
2023-05-17T08:29:57.715Z,2.42
2023-05-17T08:32:26.047Z,2.30
2023-05-17T08:34:53.453Z,1.58
2023-05-17T08:37:20.842Z,1.65
2023-05-17T08:39:49.658Z,2.10
2023-05-17T08:42:22.631Z,1.67
2023-05-17T08:44:50.229Z,2.13
2023-05-17T08:47:29.691Z,2.10
2023-05-17T08:50:06.224Z,1.90
2023-05-17T08:52:33.759Z,1.80
2023-05-17T08:55:06.058Z,2.50
2023-05-17T08:57:36.624Z,2.10
2023-05-17T09:00:12.395Z,2.58
2023-05-17T09:02:40.633Z,2.58
2023-05-17T09:05:08.597Z,2.35
2023-05-17T09:07:36.455Z,1.88
2023-05-17T09:10:05.769Z,2.13
2023-05-17T09:12:34.921Z,2.45
2023-05-17T09:15:19.345Z,2.50
2023-05-17T09:17:54.359Z,2.60
2023-05-17T09:20:25.986Z,2.47
2023-05-17T09:22:53.510Z,2.15
2023-05-17T09:25:21.684Z,2.15
2023-05-17T09:27:48.959Z,2.37
2023-05-17T09:30:16.518Z,2.25
2023-05-17T09:35:19.768Z,2.92
2023-05-17T09:37:47.225Z,2.70
2023-05-17T09:40:26.892Z,3.22
2023-05-17T09:42:54.217Z,2.22
2023-05-17T09:45:24.762Z,2.92
2023-05-17T09:47:52.733Z,3.10
2023-05-17T09:50:22.003Z,2.75
2023-05-17T09:52:50.811Z,2.50
2023-05-17T09:55:18.494Z,2.33
2023-05-17T09:57:48.715Z,2.83
2023-05-17T10:00:19.274Z,2.20
2023-05-17T10:02:48.995Z,2.22
2023-05-17T10:05:18.267Z,2.70
2023-05-17T10:07:49.613Z,1.88
2023-05-17T10:10:18.156Z,2.10
2023-05-17T10:12:45.710Z,2.45
2023-05-17T10:15:16.217Z,1.80
2023-05-17T10:17:45.565Z,1.90
2023-05-17T10:20:14.146Z,2.05
2023-05-17T10:22:41.849Z,2.35
2023-05-17T10:25:09.851Z,2.22
2023-05-17T10:27:37.171Z,2.40
2023-05-17T10:30:05.212Z,1.73
2023-05-17T10:32:32.775Z,1.85
2023-05-17T10:35:10.336Z,2.17
2023-05-17T10:40:07.745Z,1.73
2023-05-17T10:42:35.798Z,2.10
2023-05-17T10:45:04.088Z,1.52
2023-05-17T10:47:35.004Z,1.80
2023-05-17T10:50:03.459Z,2.13
2023-05-17T10:52:31.323Z,1.60
2023-05-17T10:55:00.749Z,1.88
2023-05-17T10:57:50.639Z,1.40
2023-05-17T11:00:22.032Z,1.52
2023-05-17T11:02:51.084Z,1.65
2023-05-17T11:05:25.940Z,1.73
2023-05-17T11:07:53.431Z,1.75
2023-05-17T11:10:20.759Z,1.67
2023-05-17T11:12:54.169Z,1.85
2023-05-17T11:15:26.527Z,1.55
2023-05-17T11:17:54.390Z,1.92
2023-05-17T11:20:31.816Z,1.85
2023-05-17T11:23:00.587Z,2.00
2023-05-17T11:25:38.782Z,1.92
2023-05-17T11:28:19.919Z,2.13
2023-05-17T11:30:54.140Z,1.63
2023-05-17T11:33:39.526Z,2.20
2023-05-17T11:36:14.181Z,1.67
2023-05-17T11:38:41.610Z,2.67
2023-05-17T11:43:50.430Z,1.85
2023-05-17T11:46:22.323Z,1.95
2023-05-17T11:48:52.083Z,1.73
2023-05-17T11:51:21.371Z,1.80
2023-05-17T11:53:51.278Z,2.25
2023-05-17T11:56:22.186Z,1.88
2023-05-17T11:58:55.369Z,2.03
2023-05-17T12:01:22.725Z,1.83
2023-05-17T12:03:59.147Z,1.70
2023-05-17T12:06:29.273Z,2.20
2023-05-17T12:08:56.819Z,2.35
2023-05-17T12:11:24.153Z,1.90
2023-05-17T12:13:52.077Z,2.03
2023-05-17T12:16:22.712Z,2.38
2023-05-17T12:18:51.500Z,2.97
2023-05-17T12:23:49.572Z,1.98
2023-05-17T12:26:20.053Z,2.13
2023-05-17T12:28:57.554Z,1.83
2023-05-17T12:31:28.802Z,2.30
2023-05-17T12:33:59.135Z,2.00
2023-05-17T12:36:29.144Z,2.10
2023-05-17T12:38:56.876Z,1.80
2023-05-17T12:41:26.268Z,1.95
2023-05-17T12:44:06.298Z,1.73
2023-05-17T12:46:40.900Z,1.60
2023-05-17T12:49:09.617Z,1.60
2023-05-17T12:51:44.288Z,2.05
2023-05-17T12:54:18.848Z,1.60
2023-05-17T12:56:46.562Z,2.13
2023-05-17T12:59:21.102Z,2.03
2023-05-17T13:01:55.506Z,1.70
2023-05-17T13:04:31.755Z,1.73
2023-05-17T13:07:02.491Z,1.98
2023-05-17T13:09:31.100Z,2.10
2023-05-17T13:12:05.342Z,1.90
2023-05-17T13:14:41.173Z,1.45
2023-05-17T13:17:10.857Z,1.60
2023-05-17T13:19:39.259Z,2.30
2023-05-17T13:22:09.400Z,1.75
2023-05-17T13:24:38.468Z,1.40
2023-05-17T13:27:06.251Z,1.73
2023-05-17T13:29:40.513Z,1.88
2023-05-17T13:32:09.780Z,1.30
2023-05-17T13:37:05.662Z,2.05
2023-05-17T13:39:33.996Z,1.33
2023-05-17T13:42:01.277Z,1.35
2023-05-17T13:44:28.791Z,1.23
2023-05-17T13:46:56.017Z,1.88
2023-05-17T13:49:23.361Z,1.35
2023-05-17T13:51:50.670Z,1.40
2023-05-17T13:54:20.252Z,1.38
2023-05-17T13:56:47.944Z,1.70
2023-05-17T13:59:15.343Z,1.67
2023-05-17T14:01:43.469Z,1.38
2023-05-17T14:04:11.110Z,1.67
2023-05-17T14:06:39.622Z,2.20
2023-05-17T14:09:06.910Z,2.40
2023-05-17T14:11:34.646Z,2.38
2023-05-17T14:14:02.156Z,1.75
2023-05-17T14:16:29.738Z,2.55
2023-05-17T14:18:57.447Z,2.10
2023-05-17T14:21:24.734Z,1.85
2023-05-17T14:23:52.113Z,2.13
2023-05-17T14:26:19.380Z,2.28
2023-05-17T14:28:46.649Z,2.20
2023-05-17T14:31:13.993Z,2.40
2023-05-17T14:33:41.309Z,2.33
2023-05-17T14:36:08.695Z,2.03
2023-05-17T14:38:37.030Z,2.10
2023-05-17T14:41:06.665Z,1.70
2023-05-17T14:43:33.941Z,2.63
2023-05-17T14:46:01.530Z,1.95
2023-05-17T14:48:28.901Z,2.10
2023-05-17T14:50:56.621Z,2.70
2023-05-17T14:53:28.935Z,2.60
2023-05-17T14:55:57.865Z,2.00
2023-05-17T14:58:25.397Z,2.70
2023-05-17T15:01:04.931Z,2.30
2023-05-17T15:03:33.763Z,2.35
2023-05-17T15:06:03.264Z,2.22
2023-05-17T15:08:32.805Z,2.10
2023-05-17T15:11:01.763Z,2.05
2023-05-17T15:13:29.508Z,2.15
2023-05-17T15:15:56.886Z,2.20
2023-05-17T15:18:24.244Z,2.00
2023-05-17T15:20:51.807Z,2.08
2023-05-17T15:23:19.282Z,2.17
2023-05-17T15:25:46.713Z,2.30
2023-05-17T15:28:14.191Z,2.10
2023-05-17T15:30:42.057Z,1.92
2023-05-17T15:33:10.012Z,2.30
2023-05-17T15:35:40.126Z,2.58
2023-05-17T15:38:07.666Z,2.00
2023-05-17T15:40:34.923Z,1.80
2023-05-17T15:43:02.191Z,2.00
2023-05-17T15:45:29.847Z,2.17
2023-05-17T15:47:57.503Z,1.77
2023-05-17T15:50:24.884Z,2.33
2023-05-17T15:52:52.213Z,2.45
2023-05-17T15:55:19.796Z,2.15
2023-05-17T15:57:47.149Z,2.33
2023-05-17T16:00:14.887Z,1.92
2023-05-17T16:02:42.604Z,1.95
2023-05-17T16:05:10.293Z,2.05
2023-05-17T16:07:37.662Z,2.03
2023-05-17T16:10:05.182Z,2.10
2023-05-17T16:12:32.603Z,2.38
2023-05-17T16:14:59.859Z,2.10
2023-05-17T16:17:27.859Z,1.92
2023-05-17T16:19:55.424Z,2.22
2023-05-17T16:22:23.062Z,2.65
2023-05-17T16:24:53.787Z,2.70
2023-05-17T16:27:21.751Z,2.65
2023-05-17T16:29:49.044Z,2.67
2023-05-17T16:32:16.384Z,2.40
2023-05-17T16:34:43.743Z,1.98
2023-05-17T16:37:11.218Z,1.67
2023-05-17T16:39:38.435Z,2.58
2023-05-17T16:42:05.804Z,2.20
2023-05-17T16:44:33.096Z,1.92
2023-05-17T16:47:01.276Z,2.08
2023-05-17T16:49:30.204Z,3.10
2023-05-17T16:51:57.751Z,2.60
2023-05-17T16:54:28.250Z,5.97
2023-05-17T16:56:56.221Z,7.43
2023-05-17T16:59:23.504Z,6.32
2023-05-17T17:01:51.296Z,5.05
2023-05-17T17:04:18.674Z,5.78
2023-05-17T17:06:46.285Z,5.88
2023-05-17T17:09:14.186Z,5.35
2023-05-17T17:11:41.494Z,5.60
2023-05-17T17:14:09.018Z,5.10
2023-05-17T17:16:36.865Z,4.65
2023-05-17T17:19:04.255Z,4.47
2023-05-17T17:21:36.603Z,4.07
2023-05-17T17:24:05.498Z,4.10
2023-05-17T17:29:04.101Z,4.03
2023-05-17T17:31:32.416Z,3.35
2023-05-17T17:33:59.706Z,3.38
2023-05-17T17:36:27.139Z,3.38
2023-05-17T17:38:54.553Z,3.38
2023-05-17T17:41:23.302Z,3.22
2023-05-17T17:43:50.789Z,3.00
2023-05-17T17:46:18.025Z,3.03
2023-05-17T17:48:45.398Z,2.92
2023-05-17T17:51:12.681Z,2.50
2023-05-17T17:53:41.466Z,2.50
2023-05-17T17:56:08.808Z,2.60
2023-05-17T17:58:36.658Z,2.40
2023-05-17T18:01:05.281Z,2.60
2023-05-17T18:03:32.604Z,2.53
2023-05-17T18:05:59.919Z,1.95
2023-05-17T18:08:27.428Z,2.50
2023-05-17T18:10:54.714Z,2.60
2023-05-17T18:13:22.197Z,2.10
2023-05-17T18:15:49.458Z,2.53
2023-05-17T18:18:19.287Z,1.88
2023-05-17T18:20:46.618Z,1.45
2023-05-17T18:23:13.874Z,2.60
2023-05-17T18:25:41.423Z,1.92
2023-05-17T18:28:09.110Z,2.30
2023-05-17T18:30:36.581Z,1.83
2023-05-17T18:33:04.130Z,2.47
2023-05-17T18:35:31.499Z,2.50
2023-05-17T18:37:59.890Z,2.20
2023-05-17T18:40:27.696Z,2.05
2023-05-17T18:42:55.230Z,2.05
2023-05-17T18:45:22.784Z,2.42
2023-05-17T18:47:50.203Z,1.90
2023-05-17T18:50:17.507Z,2.17
2023-05-17T18:52:44.794Z,2.15
2023-05-17T18:55:12.111Z,2.08
2023-05-17T18:57:39.428Z,1.70
2023-05-17T19:00:07.537Z,1.95
2023-05-17T19:02:34.826Z,1.90
2023-05-17T19:05:02.156Z,1.70
2023-05-17T19:07:29.461Z,1.73
2023-05-17T19:09:56.877Z,2.33
2023-05-17T19:12:24.132Z,2.40
2023-05-17T19:14:51.366Z,1.75
2023-05-17T19:17:18.724Z,1.98
2023-05-17T19:19:46.063Z,2.15
2023-05-17T19:22:14.464Z,1.52
2023-05-17T19:24:41.722Z,1.80
2023-05-17T19:27:10.351Z,1.80
2023-05-17T19:29:38.191Z,2.05
2023-05-17T19:32:06.159Z,1.83
2023-05-17T19:34:33.369Z,1.83
2023-05-17T19:37:00.701Z,2.20
2023-05-17T19:39:28.107Z,2.10
2023-05-17T19:41:55.509Z,1.95
2023-05-17T19:44:22.834Z,2.03
2023-05-17T19:46:50.194Z,1.88
2023-05-17T19:49:17.649Z,2.50
2023-05-17T19:51:46.182Z,2.63
2023-05-17T19:54:13.458Z,2.53
2023-05-17T19:56:40.748Z,3.03
2023-05-17T19:59:08.125Z,4.20
2023-05-17T20:01:35.553Z,4.90
2023-05-17T20:04:07.100Z,4.68
2023-05-17T20:06:34.378Z,4.93
2023-05-17T20:09:01.792Z,4.82
2023-05-17T20:11:29.216Z,5.25
2023-05-17T20:13:56.439Z,5.22
2023-05-17T20:16:27.824Z,4.93
2023-05-17T20:18:57.894Z,4.72
2023-05-17T20:21:26.219Z,5.05
2023-05-17T20:24:03.329Z,4.53
2023-05-17T20:26:36.986Z,4.53
2023-05-17T20:29:08.362Z,4.18
2023-05-17T20:31:36.399Z,4.03
2023-05-17T20:34:04.963Z,3.53
2023-05-17T20:36:32.446Z,3.95
2023-05-17T20:38:59.785Z,3.65
2023-05-17T20:41:27.068Z,3.45
2023-05-17T20:43:54.687Z,3.15
2023-05-17T20:46:22.095Z,3.80
2023-05-17T20:48:49.982Z,3.90
2023-05-17T20:51:18.183Z,3.65
2023-05-17T20:53:46.386Z,3.53
2023-05-17T20:56:19.240Z,3.37
2023-05-17T20:58:47.732Z,3.30
2023-05-17T21:01:17.407Z,3.20
2023-05-17T21:03:44.957Z,4.18
2023-05-17T21:06:13.042Z,3.95
2023-05-17T21:08:40.655Z,4.50
2023-05-17T21:11:08.228Z,4.57
2023-05-17T21:13:35.490Z,5.53
2023-05-17T21:16:02.843Z,9.75
2023-05-17T21:18:30.092Z,14.38
2023-05-17T21:20:57.268Z,20.83
2023-05-17T21:23:24.509Z,23.65
2023-05-17T21:25:51.915Z,26.20
2023-05-17T21:28:19.755Z,25.98
2023-05-17T21:30:47.029Z,25.23
2023-05-17T21:33:14.444Z,17.58
2023-05-17T21:35:41.818Z,11.73
2023-05-17T21:38:09.646Z,8.95
2023-05-17T21:40:37.908Z,6.28
2023-05-17T21:43:06.891Z,4.93
2023-05-17T21:48:01.725Z,3.42
2023-05-17T21:50:29.265Z,3.00
2023-05-17T21:52:56.807Z,2.78
2023-05-17T21:55:24.242Z,3.33
2023-05-17T21:57:51.528Z,3.20
2023-05-17T22:00:20.165Z,2.95
2023-05-17T22:02:48.000Z,3.28
2023-05-17T22:05:15.516Z,2.97
2023-05-17T22:07:42.857Z,3.03
2023-05-17T22:10:10.404Z,3.08
2023-05-17T22:12:38.403Z,3.10
2023-05-17T22:15:06.345Z,3.03
2023-05-17T22:17:43.187Z,2.80
2023-05-17T22:20:16.949Z,2.53
2023-05-17T22:22:44.326Z,3.10
2023-05-17T22:25:12.122Z,3.03
2023-05-17T22:27:39.443Z,2.72
2023-05-17T22:30:07.807Z,2.65
2023-05-17T22:32:37.436Z,2.63
2023-05-17T22:35:05.023Z,2.92
2023-05-17T22:37:32.942Z,2.67
2023-05-17T22:40:00.422Z,2.90
2023-05-17T22:42:27.753Z,3.47
2023-05-17T22:44:55.097Z,2.85
2023-05-17T22:47:23.363Z,2.47
2023-05-17T22:49:53.616Z,2.25
2023-05-17T22:52:20.903Z,2.78
2023-05-17T22:54:48.217Z,2.58
2023-05-17T22:57:15.481Z,2.83
2023-05-17T22:59:44.012Z,2.80
2023-05-17T23:02:12.410Z,2.53
2023-05-17T23:04:40.333Z,2.53
2023-05-17T23:07:09.974Z,2.55
2023-05-17T23:09:40.728Z,2.75
2023-05-17T23:12:13.856Z,3.00
2023-05-17T23:14:41.147Z,2.35
2023-05-17T23:17:08.558Z,2.92
2023-05-17T23:19:35.952Z,2.55
2023-05-17T23:22:04.109Z,2.15
2023-05-17T23:24:31.567Z,2.67
2023-05-17T23:26:59.128Z,2.33
2023-05-17T23:29:26.445Z,2.40
2023-05-17T23:31:54.194Z,2.42
2023-05-17T23:34:22.129Z,2.47
2023-05-17T23:36:49.383Z,2.40
2023-05-17T23:39:16.626Z,2.72
2023-05-17T23:41:44.227Z,2.33
2023-05-17T23:44:11.650Z,2.55
2023-05-17T23:46:39.341Z,2.00
2023-05-17T23:49:06.832Z,2.47
2023-05-17T23:51:34.925Z,2.25
2023-05-17T23:54:02.285Z,2.40
2023-05-17T23:56:30.071Z,2.25
2023-05-17T23:58:57.366Z,2.10
